sensor_id;sensor_type;location;lat;lon;timestamp;P1;durP1;ratioP1;P2;durP2;ratioP2
38427;SDS011;24211;49.980;19.776;2023-05-20T00:01:48;40.17;;;14.65;;
38427;SDS011;24211;49.980;19.776;2023-05-20T00:04:15;33.50;;;14.10;;
38427;SDS011;24211;49.980;19.776;2023-05-20T00:06:43;35.40;;;14.77;;
38427;SDS011;24211;49.980;19.776;2023-05-20T00:09:10;29.58;;;12.57;;
38427;SDS011;24211;49.980;19.776;2023-05-20T00:11:37;26.85;;;11.60;;
38427;SDS011;24211;49.980;19.776;2023-05-20T00:14:05;25.70;;;11.80;;
38427;SDS011;24211;49.980;19.776;2023-05-20T00:16:32;21.35;;;9.45;;
38427;SDS011;24211;49.980;19.776;2023-05-20T00:19:00;23.77;;;9.68;;
38427;SDS011;24211;49.980;19.776;2023-05-20T00:21:27;28.90;;;11.57;;
38427;SDS011;24211;49.980;19.776;2023-05-20T00:23:55;25.35;;;11.27;;
38427;SDS011;24211;49.980;19.776;2023-05-20T00:26:22;30.45;;;12.52;;
38427;SDS011;24211;49.980;19.776;2023-05-20T00:28:53;27.52;;;11.57;;
38427;SDS011;24211;49.980;19.776;2023-05-20T00:31:20;21.35;;;9.95;;
38427;SDS011;24211;49.980;19.776;2023-05-20T00:33:47;25.58;;;10.85;;
38427;SDS011;24211;49.980;19.776;2023-05-20T00:36:15;25.88;;;11.20;;
38427;SDS011;24211;49.980;19.776;2023-05-20T00:38:42;21.38;;;10.18;;
38427;SDS011;24211;49.980;19.776;2023-05-20T00:41:09;18.13;;;8.25;;
38427;SDS011;24211;49.980;19.776;2023-05-20T00:43:36;23.40;;;9.25;;
38427;SDS011;24211;49.980;19.776;2023-05-20T00:46:03;20.85;;;8.52;;
38427;SDS011;24211;49.980;19.776;2023-05-20T00:48:32;25.48;;;10.43;;
38427;SDS011;24211;49.980;19.776;2023-05-20T00:51:10;27.65;;;10.82;;
38427;SDS011;24211;49.980;19.776;2023-05-20T00:53:39;21.38;;;9.55;;
38427;SDS011;24211;49.980;19.776;2023-05-20T00:56:08;24.55;;;10.88;;
38427;SDS011;24211;49.980;19.776;2023-05-20T00:58:35;22.80;;;10.02;;
38427;SDS011;24211;49.980;19.776;2023-05-20T01:01:05;20.15;;;9.07;;
38427;SDS011;24211;49.980;19.776;2023-05-20T01:03:32;22.55;;;9.55;;
38427;SDS011;24211;49.980;19.776;2023-05-20T01:06:01;19.50;;;9.00;;
38427;SDS011;24211;49.980;19.776;2023-05-20T01:08:28;20.30;;;9.20;;
38427;SDS011;24211;49.980;19.776;2023-05-20T01:13:37;21.25;;;9.18;;
38427;SDS011;24211;49.980;19.776;2023-05-20T01:16:19;22.65;;;10.07;;
38427;SDS011;24211;49.980;19.776;2023-05-20T01:18:50;22.30;;;10.02;;
38427;SDS011;24211;49.980;19.776;2023-05-20T01:21:21;21.13;;;10.07;;
38427;SDS011;24211;49.980;19.776;2023-05-20T01:23:49;22.10;;;10.18;;
38427;SDS011;24211;49.980;19.776;2023-05-20T01:26:16;18.38;;;8.98;;
38427;SDS011;24211;49.980;19.776;2023-05-20T01:28:44;20.38;;;8.63;;
38427;SDS011;24211;49.980;19.776;2023-05-20T01:31:25;24.95;;;10.38;;
38427;SDS011;24211;49.980;19.776;2023-05-20T01:33:59;26.40;;;11.77;;
38427;SDS011;24211;49.980;19.776;2023-05-20T01:36:28;19.92;;;8.77;;
38427;SDS011;24211;49.980;19.776;2023-05-20T01:38:56;23.67;;;10.55;;
38427;SDS011;24211;49.980;19.776;2023-05-20T01:41:26;22.33;;;10.50;;
38427;SDS011;24211;49.980;19.776;2023-05-20T01:43:55;25.40;;;11.43;;
38427;SDS011;24211;49.980;19.776;2023-05-20T01:46:23;27.92;;;11.88;;
38427;SDS011;24211;49.980;19.776;2023-05-20T01:48:51;17.08;;;7.90;;
38427;SDS011;24211;49.980;19.776;2023-05-20T01:51:18;31.40;;;12.65;;
38427;SDS011;24211;49.980;19.776;2023-05-20T01:53:45;33.55;;;13.73;;
38427;SDS011;24211;49.980;19.776;2023-05-20T01:56:13;33.50;;;14.25;;
38427;SDS011;24211;49.980;19.776;2023-05-20T01:58:40;31.38;;;12.43;;
38427;SDS011;24211;49.980;19.776;2023-05-20T02:01:07;29.02;;;12.40;;
38427;SDS011;24211;49.980;19.776;2023-05-20T02:03:34;35.75;;;15.10;;
38427;SDS011;24211;49.980;19.776;2023-05-20T02:06:02;44.40;;;16.90;;
38427;SDS011;24211;49.980;19.776;2023-05-20T02:08:29;40.90;;;15.80;;
38427;SDS011;24211;49.980;19.776;2023-05-20T02:10:58;38.90;;;14.82;;
38427;SDS011;24211;49.980;19.776;2023-05-20T02:13:26;27.70;;;12.00;;
38427;SDS011;24211;49.980;19.776;2023-05-20T02:15:53;40.55;;;16.40;;
38427;SDS011;24211;49.980;19.776;2023-05-20T02:18:22;39.70;;;15.45;;
38427;SDS011;24211;49.980;19.776;2023-05-20T02:20:52;38.03;;;14.13;;
38427;SDS011;24211;49.980;19.776;2023-05-20T02:23:19;24.35;;;10.88;;
38427;SDS011;24211;49.980;19.776;2023-05-20T02:25:46;38.97;;;15.65;;
38427;SDS011;24211;49.980;19.776;2023-05-20T02:28:13;34.70;;;14.15;;
38427;SDS011;24211;49.980;19.776;2023-05-20T02:30:41;30.83;;;13.32;;
38427;SDS011;24211;49.980;19.776;2023-05-20T02:33:08;29.88;;;12.18;;
38427;SDS011;24211;49.980;19.776;2023-05-20T02:35:36;20.58;;;8.68;;
38427;SDS011;24211;49.980;19.776;2023-05-20T02:38:03;38.58;;;14.75;;
38427;SDS011;24211;49.980;19.776;2023-05-20T02:40:30;33.22;;;13.27;;
38427;SDS011;24211;49.980;19.776;2023-05-20T02:42:59;37.78;;;13.93;;
38427;SDS011;24211;49.980;19.776;2023-05-20T02:45:27;38.70;;;15.70;;
38427;SDS011;24211;49.980;19.776;2023-05-20T02:47:55;30.08;;;11.65;;
38427;SDS011;24211;49.980;19.776;2023-05-20T02:50:23;42.20;;;16.05;;
38427;SDS011;24211;49.980;19.776;2023-05-20T02:52:50;30.20;;;12.38;;
38427;SDS011;24211;49.980;19.776;2023-05-20T02:55:18;28.35;;;12.70;;
38427;SDS011;24211;49.980;19.776;2023-05-20T02:57:45;32.67;;;13.63;;
38427;SDS011;24211;49.980;19.776;2023-05-20T03:00:12;31.15;;;12.10;;
38427;SDS011;24211;49.980;19.776;2023-05-20T03:02:40;34.42;;;14.27;;
38427;SDS011;24211;49.980;19.776;2023-05-20T03:05:08;40.05;;;15.82;;
38427;SDS011;24211;49.980;19.776;2023-05-20T03:07:36;34.95;;;14.18;;
38427;SDS011;24211;49.980;19.776;2023-05-20T03:10:05;35.42;;;14.63;;
38427;SDS011;24211;49.980;19.776;2023-05-20T03:12:37;28.40;;;11.70;;
38427;SDS011;24211;49.980;19.776;2023-05-20T03:15:05;24.88;;;10.52;;
38427;SDS011;24211;49.980;19.776;2023-05-20T03:17:34;23.52;;;10.70;;
38427;SDS011;24211;49.980;19.776;2023-05-20T03:20:01;34.92;;;13.52;;
38427;SDS011;24211;49.980;19.776;2023-05-20T03:22:29;38.70;;;15.30;;
38427;SDS011;24211;49.980;19.776;2023-05-20T03:24:56;36.13;;;13.75;;
38427;SDS011;24211;49.980;19.776;2023-05-20T03:27:25;35.15;;;14.52;;
38427;SDS011;24211;49.980;19.776;2023-05-20T03:29:54;34.15;;;14.23;;
38427;SDS011;24211;49.980;19.776;2023-05-20T03:32:23;25.67;;;11.25;;
38427;SDS011;24211;49.980;19.776;2023-05-20T03:34:50;35.88;;;14.18;;
38427;SDS011;24211;49.980;19.776;2023-05-20T03:37:17;50.55;;;22.83;;
38427;SDS011;24211;49.980;19.776;2023-05-20T03:39:44;32.63;;;14.25;;
38427;SDS011;24211;49.980;19.776;2023-05-20T03:42:12;35.05;;;14.57;;
38427;SDS011;24211;49.980;19.776;2023-05-20T03:44:39;34.70;;;14.82;;
38427;SDS011;24211;49.980;19.776;2023-05-20T03:47:07;26.48;;;11.02;;
38427;SDS011;24211;49.980;19.776;2023-05-20T03:49:34;28.73;;;11.88;;
38427;SDS011;24211;49.980;19.776;2023-05-20T03:52:01;38.97;;;16.20;;
38427;SDS011;24211;49.980;19.776;2023-05-20T03:54:30;25.77;;;11.15;;
38427;SDS011;24211;49.980;19.776;2023-05-20T03:56:57;22.92;;;9.73;;
38427;SDS011;24211;49.980;19.776;2023-05-20T03:59:27;21.65;;;10.02;;
38427;SDS011;24211;49.980;19.776;2023-05-20T04:01:54;39.47;;;14.18;;
38427;SDS011;24211;49.980;19.776;2023-05-20T04:04:23;23.92;;;9.82;;
38427;SDS011;24211;49.980;19.776;2023-05-20T04:06:50;18.02;;;8.95;;
38427;SDS011;24211;49.980;19.776;2023-05-20T04:09:17;32.63;;;13.38;;
38427;SDS011;24211;49.980;19.776;2023-05-20T04:11:45;23.40;;;10.05;;
38427;SDS011;24211;49.980;19.776;2023-05-20T04:14:12;40.80;;;15.18;;
38427;SDS011;24211;49.980;19.776;2023-05-20T04:16:39;45.72;;;17.35;;
38427;SDS011;24211;49.980;19.776;2023-05-20T04:19:07;38.72;;;14.07;;
38427;SDS011;24211;49.980;19.776;2023-05-20T04:21:34;32.10;;;13.10;;
38427;SDS011;24211;49.980;19.776;2023-05-20T04:24:01;21.83;;;10.57;;
38427;SDS011;24211;49.980;19.776;2023-05-20T04:26:28;34.28;;;14.00;;
38427;SDS011;24211;49.980;19.776;2023-05-20T04:28:56;44.15;;;14.63;;
38427;SDS011;24211;49.980;19.776;2023-05-20T04:31:25;40.75;;;17.15;;
38427;SDS011;24211;49.980;19.776;2023-05-20T04:33:53;35.90;;;15.57;;
38427;SDS011;24211;49.980;19.776;2023-05-20T04:36:21;41.00;;;16.38;;
38427;SDS011;24211;49.980;19.776;2023-05-20T04:38:48;39.67;;;15.52;;
38427;SDS011;24211;49.980;19.776;2023-05-20T04:41:15;42.55;;;16.35;;
38427;SDS011;24211;49.980;19.776;2023-05-20T04:43:43;41.17;;;16.60;;
38427;SDS011;24211;49.980;19.776;2023-05-20T04:46:11;36.72;;;14.63;;
38427;SDS011;24211;49.980;19.776;2023-05-20T04:48:41;42.13;;;16.48;;
38427;SDS011;24211;49.980;19.776;2023-05-20T04:51:13;39.97;;;15.30;;
38427;SDS011;24211;49.980;19.776;2023-05-20T04:53:40;39.95;;;15.45;;
38427;SDS011;24211;49.980;19.776;2023-05-20T04:56:10;35.42;;;14.05;;
38427;SDS011;24211;49.980;19.776;2023-05-20T04:58:39;33.70;;;14.55;;
38427;SDS011;24211;49.980;19.776;2023-05-20T05:01:07;32.50;;;14.40;;
38427;SDS011;24211;49.980;19.776;2023-05-20T05:03:35;33.75;;;14.68;;
38427;SDS011;24211;49.980;19.776;2023-05-20T05:06:03;33.65;;;14.40;;
38427;SDS011;24211;49.980;19.776;2023-05-20T05:08:30;30.67;;;14.25;;
38427;SDS011;24211;49.980;19.776;2023-05-20T05:10:58;29.83;;;13.27;;
38427;SDS011;24211;49.980;19.776;2023-05-20T05:13:25;26.52;;;11.63;;
38427;SDS011;24211;49.980;19.776;2023-05-20T05:16:00;27.33;;;12.93;;
38427;SDS011;24211;49.980;19.776;2023-05-20T05:18:47;33.08;;;14.30;;
38427;SDS011;24211;49.980;19.776;2023-05-20T05:21:15;37.00;;;15.43;;
38427;SDS011;24211;49.980;19.776;2023-05-20T05:23:44;37.72;;;15.38;;
38427;SDS011;24211;49.980;19.776;2023-05-20T05:26:11;24.98;;;11.52;;
38427;SDS011;24211;49.980;19.776;2023-05-20T05:28:40;33.25;;;14.65;;
38427;SDS011;24211;49.980;19.776;2023-05-20T05:31:08;37.50;;;15.93;;
38427;SDS011;24211;49.980;19.776;2023-05-20T05:33:36;29.52;;;13.05;;
38427;SDS011;24211;49.980;19.776;2023-05-20T05:36:06;24.35;;;11.25;;
38427;SDS011;24211;49.980;19.776;2023-05-20T05:38:49;27.23;;;12.73;;
38427;SDS011;24211;49.980;19.776;2023-05-20T05:41:23;32.97;;;15.10;;
38427;SDS011;24211;49.980;19.776;2023-05-20T05:43:51;35.33;;;14.98;;
38427;SDS011;24211;49.980;19.776;2023-05-20T05:46:18;33.38;;;14.23;;
38427;SDS011;24211;49.980;19.776;2023-05-20T05:48:46;34.00;;;15.13;;
38427;SDS011;24211;49.980;19.776;2023-05-20T05:51:17;37.47;;;15.88;;
38427;SDS011;24211;49.980;19.776;2023-05-20T05:57:32;28.73;;;12.38;;
38427;SDS011;24211;49.980;19.776;2023-05-20T06:00:02;36.97;;;15.20;;
38427;SDS011;24211;49.980;19.776;2023-05-20T06:15:09;34.03;;;14.45;;
38427;SDS011;24211;49.980;19.776;2023-05-20T06:21:24;33.75;;;14.32;;
38427;SDS011;24211;49.980;19.776;2023-05-20T06:23:52;34.28;;;14.95;;
38427;SDS011;24211;49.980;19.776;2023-05-20T06:26:19;27.20;;;12.65;;
38427;SDS011;24211;49.980;19.776;2023-05-20T06:28:46;26.65;;;12.73;;
38427;SDS011;24211;49.980;19.776;2023-05-20T06:31:13;33.13;;;14.23;;
38427;SDS011;24211;49.980;19.776;2023-05-20T06:33:42;28.95;;;13.65;;
38427;SDS011;24211;49.980;19.776;2023-05-20T06:36:11;31.63;;;14.60;;
38427;SDS011;24211;49.980;19.776;2023-05-20T06:38:39;32.50;;;14.88;;
38427;SDS011;24211;49.980;19.776;2023-05-20T06:41:06;34.80;;;14.85;;
38427;SDS011;24211;49.980;19.776;2023-05-20T06:43:34;31.75;;;14.35;;
38427;SDS011;24211;49.980;19.776;2023-05-20T06:46:09;31.40;;;14.23;;
38427;SDS011;24211;49.980;19.776;2023-05-20T06:48:47;33.08;;;14.68;;
38427;SDS011;24211;49.980;19.776;2023-05-20T06:51:15;32.53;;;14.98;;
38427;SDS011;24211;49.980;19.776;2023-05-20T06:53:45;32.90;;;14.75;;
38427;SDS011;24211;49.980;19.776;2023-05-20T06:56:13;33.75;;;15.02;;
38427;SDS011;24211;49.980;19.776;2023-05-20T06:58:41;31.65;;;14.55;;
38427;SDS011;24211;49.980;19.776;2023-05-20T07:01:09;32.03;;;14.90;;
38427;SDS011;24211;49.980;19.776;2023-05-20T07:03:37;32.78;;;15.27;;
38427;SDS011;24211;49.980;19.776;2023-05-20T07:06:04;32.72;;;14.88;;
38427;SDS011;24211;49.980;19.776;2023-05-20T07:08:31;29.98;;;13.90;;
38427;SDS011;24211;49.980;19.776;2023-05-20T07:10:59;25.30;;;12.93;;
38427;SDS011;24211;49.980;19.776;2023-05-20T07:13:28;30.23;;;14.98;;
38427;SDS011;24211;49.980;19.776;2023-05-20T07:15:57;29.42;;;14.32;;
38427;SDS011;24211;49.980;19.776;2023-05-20T07:18:25;30.70;;;14.45;;
38427;SDS011;24211;49.980;19.776;2023-05-20T07:20:55;27.35;;;13.75;;
38427;SDS011;24211;49.980;19.776;2023-05-20T07:23:33;27.50;;;13.10;;
38427;SDS011;24211;49.980;19.776;2023-05-20T07:26:01;28.27;;;13.00;;
38427;SDS011;24211;49.980;19.776;2023-05-20T07:28:28;27.50;;;13.68;;
38427;SDS011;24211;49.980;19.776;2023-05-20T07:30:56;23.33;;;11.70;;
38427;SDS011;24211;49.980;19.776;2023-05-20T07:33:27;29.52;;;14.00;;
38427;SDS011;24211;49.980;19.776;2023-05-20T07:35:56;28.15;;;13.55;;
38427;SDS011;24211;49.980;19.776;2023-05-20T07:38:23;26.48;;;13.23;;
38427;SDS011;24211;49.980;19.776;2023-05-20T07:40:56;25.63;;;13.18;;
38427;SDS011;24211;49.980;19.776;2023-05-20T07:43:23;28.20;;;13.80;;
38427;SDS011;24211;49.980;19.776;2023-05-20T07:45:50;25.52;;;12.88;;
38427;SDS011;24211;49.980;19.776;2023-05-20T07:48:18;24.10;;;12.63;;
38427;SDS011;24211;49.980;19.776;2023-05-20T07:50:45;27.38;;;12.88;;
38427;SDS011;24211;49.980;19.776;2023-05-20T07:53:13;27.15;;;12.40;;
38427;SDS011;24211;49.980;19.776;2023-05-20T07:55:40;21.20;;;11.05;;
38427;SDS011;24211;49.980;19.776;2023-05-20T07:58:08;22.85;;;12.20;;
38427;SDS011;24211;49.980;19.776;2023-05-20T08:00:36;21.70;;;10.70;;
38427;SDS011;24211;49.980;19.776;2023-05-20T08:03:06;24.83;;;12.57;;
38427;SDS011;24211;49.980;19.776;2023-05-20T08:05:45;26.08;;;12.07;;
38427;SDS011;24211;49.980;19.776;2023-05-20T08:08:13;23.45;;;12.15;;
38427;SDS011;24211;49.980;19.776;2023-05-20T08:10:55;21.90;;;11.20;;
38427;SDS011;24211;49.980;19.776;2023-05-20T08:13:24;23.50;;;11.82;;
38427;SDS011;24211;49.980;19.776;2023-05-20T08:15:52;20.00;;;10.57;;
38427;SDS011;24211;49.980;19.776;2023-05-20T08:18:20;22.30;;;11.32;;
38427;SDS011;24211;49.980;19.776;2023-05-20T08:20:48;18.13;;;10.05;;
38427;SDS011;24211;49.980;19.776;2023-05-20T08:23:16;20.02;;;10.77;;
38427;SDS011;24211;49.980;19.776;2023-05-20T08:25:44;20.10;;;10.77;;
38427;SDS011;24211;49.980;19.776;2023-05-20T08:28:14;21.30;;;11.55;;
38427;SDS011;24211;49.980;19.776;2023-05-20T08:30:43;21.55;;;10.70;;
38427;SDS011;24211;49.980;19.776;2023-05-20T08:33:11;19.63;;;10.82;;
38427;SDS011;24211;49.980;19.776;2023-05-20T08:35:38;22.02;;;10.60;;
38427;SDS011;24211;49.980;19.776;2023-05-20T08:41:51;23.88;;;11.50;;
38427;SDS011;24211;49.980;19.776;2023-05-20T08:44:18;17.80;;;9.75;;
38427;SDS011;24211;49.980;19.776;2023-05-20T08:46:48;18.88;;;10.05;;
38427;SDS011;24211;49.980;19.776;2023-05-20T08:49:18;19.38;;;10.75;;
38427;SDS011;24211;49.980;19.776;2023-05-20T08:51:46;20.33;;;10.52;;
38427;SDS011;24211;49.980;19.776;2023-05-20T08:54:13;19.58;;;10.52;;
38427;SDS011;24211;49.980;19.776;2023-05-20T08:56:42;21.20;;;10.82;;
38427;SDS011;24211;49.980;19.776;2023-05-20T08:59:09;20.95;;;10.75;;
38427;SDS011;24211;49.980;19.776;2023-05-20T09:01:40;18.40;;;10.00;;
38427;SDS011;24211;49.980;19.776;2023-05-20T09:04:11;24.02;;;10.90;;
38427;SDS011;24211;49.980;19.776;2023-05-20T09:06:45;26.60;;;12.57;;
38427;SDS011;24211;49.980;19.776;2023-05-20T09:09:13;28.35;;;12.50;;
38427;SDS011;24211;49.980;19.776;2023-05-20T09:11:41;24.98;;;12.52;;
38427;SDS011;24211;49.980;19.776;2023-05-20T09:14:08;25.90;;;12.38;;
38427;SDS011;24211;49.980;19.776;2023-05-20T09:16:35;19.85;;;11.02;;
38427;SDS011;24211;49.980;19.776;2023-05-20T09:19:05;23.38;;;12.00;;
38427;SDS011;24211;49.980;19.776;2023-05-20T09:21:33;21.48;;;10.63;;
38427;SDS011;24211;49.980;19.776;2023-05-20T09:24:02;26.48;;;12.98;;
38427;SDS011;24211;49.980;19.776;2023-05-20T09:26:30;27.15;;;13.38;;
38427;SDS011;24211;49.980;19.776;2023-05-20T09:28:58;23.80;;;12.38;;
38427;SDS011;24211;49.980;19.776;2023-05-20T09:31:26;25.30;;;12.88;;
38427;SDS011;24211;49.980;19.776;2023-05-20T09:34:01;28.48;;;13.98;;
38427;SDS011;24211;49.980;19.776;2023-05-20T09:36:29;27.73;;;13.93;;
38427;SDS011;24211;49.980;19.776;2023-05-20T09:39:00;27.00;;;14.10;;
38427;SDS011;24211;49.980;19.776;2023-05-20T09:41:48;28.67;;;13.90;;
38427;SDS011;24211;49.980;19.776;2023-05-20T09:44:22;27.30;;;14.25;;
38427;SDS011;24211;49.980;19.776;2023-05-20T09:46:50;26.75;;;13.07;;
38427;SDS011;24211;49.980;19.776;2023-05-20T09:49:19;25.05;;;13.32;;
38427;SDS011;24211;49.980;19.776;2023-05-20T09:51:48;30.88;;;14.20;;
38427;SDS011;24211;49.980;19.776;2023-05-20T09:59:38;32.63;;;15.43;;
38427;SDS011;24211;49.980;19.776;2023-05-20T10:02:07;31.48;;;13.95;;
38427;SDS011;24211;49.980;19.776;2023-05-20T10:04:34;29.83;;;15.00;;
38427;SDS011;24211;49.980;19.776;2023-05-20T10:07:27;27.65;;;13.32;;
38427;SDS011;24211;49.980;19.776;2023-05-20T10:14:28;33.92;;;16.02;;
38427;SDS011;24211;49.980;19.776;2023-05-20T10:17:16;37.25;;;17.70;;
38427;SDS011;24211;49.980;19.776;2023-05-20T10:20:06;33.53;;;16.25;;
38427;SDS011;24211;49.980;19.776;2023-05-20T10:22:56;35.33;;;16.38;;
38427;SDS011;24211;49.980;19.776;2023-05-20T10:25:25;29.27;;;14.13;;
38427;SDS011;24211;49.980;19.776;2023-05-20T10:28:03;31.17;;;16.27;;
38427;SDS011;24211;49.980;19.776;2023-05-20T10:30:34;35.72;;;17.10;;
38427;SDS011;24211;49.980;19.776;2023-05-20T10:33:03;38.63;;;19.27;;
38427;SDS011;24211;49.980;19.776;2023-05-20T10:35:33;38.25;;;18.60;;
38427;SDS011;24211;49.980;19.776;2023-05-20T10:38:10;35.65;;;18.65;;
38427;SDS011;24211;49.980;19.776;2023-05-20T10:43:40;33.38;;;16.50;;
38427;SDS011;24211;49.980;19.776;2023-05-20T10:46:16;32.10;;;16.75;;
38427;SDS011;24211;49.980;19.776;2023-05-20T10:49:32;38.00;;;17.92;;
38427;SDS011;24211;49.980;19.776;2023-05-20T10:52:01;32.08;;;15.25;;
38427;SDS011;24211;49.980;19.776;2023-05-20T10:54:33;32.22;;;17.20;;
38427;SDS011;24211;49.980;19.776;2023-05-20T10:57:05;35.92;;;19.02;;
38427;SDS011;24211;49.980;19.776;2023-05-20T10:59:35;37.50;;;18.58;;
38427;SDS011;24211;49.980;19.776;2023-05-20T11:02:03;33.58;;;17.38;;
38427;SDS011;24211;49.980;19.776;2023-05-20T11:04:30;35.53;;;18.00;;
38427;SDS011;24211;49.980;19.776;2023-05-20T11:06:58;34.17;;;17.60;;
38427;SDS011;24211;49.980;19.776;2023-05-20T11:12:47;32.85;;;17.27;;
38427;SDS011;24211;49.980;19.776;2023-05-20T11:15:15;29.75;;;17.20;;
38427;SDS011;24211;49.980;19.776;2023-05-20T11:17:53;29.30;;;15.70;;
38427;SDS011;24211;49.980;19.776;2023-05-20T11:20:21;31.98;;;16.77;;
38427;SDS011;24211;49.980;19.776;2023-05-20T11:22:50;27.42;;;15.13;;
38427;SDS011;24211;49.980;19.776;2023-05-20T11:31:05;27.70;;;16.17;;
38427;SDS011;24211;49.980;19.776;2023-05-20T11:33:32;24.90;;;14.27;;
38427;SDS011;24211;49.980;19.776;2023-05-20T11:36:00;29.55;;;15.40;;
38427;SDS011;24211;49.980;19.776;2023-05-20T11:38:30;28.50;;;16.00;;
38427;SDS011;24211;49.980;19.776;2023-05-20T11:40:58;28.27;;;15.75;;
38427;SDS011;24211;49.980;19.776;2023-05-20T11:43:25;27.00;;;14.75;;
38427;SDS011;24211;49.980;19.776;2023-05-20T11:45:53;25.90;;;14.68;;
38427;SDS011;24211;49.980;19.776;2023-05-20T11:48:25;28.75;;;15.40;;
38427;SDS011;24211;49.980;19.776;2023-05-20T11:50:53;23.75;;;12.93;;
38427;SDS011;24211;49.980;19.776;2023-05-20T11:53:22;20.45;;;12.48;;
38427;SDS011;24211;49.980;19.776;2023-05-20T11:55:59;25.85;;;14.73;;
38427;SDS011;24211;49.980;19.776;2023-05-20T11:58:28;21.83;;;13.02;;
38427;SDS011;24211;49.980;19.776;2023-05-20T12:00:56;23.95;;;14.45;;
38427;SDS011;24211;49.980;19.776;2023-05-20T12:03:39;29.77;;;15.52;;
38427;SDS011;24211;49.980;19.776;2023-05-20T12:06:07;20.30;;;12.10;;
38427;SDS011;24211;49.980;19.776;2023-05-20T12:08:37;24.45;;;12.63;;
38427;SDS011;24211;49.980;19.776;2023-05-20T12:11:04;26.63;;;14.57;;
38427;SDS011;24211;49.980;19.776;2023-05-20T12:13:32;28.02;;;13.63;;
38427;SDS011;24211;49.980;19.776;2023-05-20T12:19:47;25.90;;;15.00;;
38427;SDS011;24211;49.980;19.776;2023-05-20T12:22:14;25.17;;;14.32;;
38427;SDS011;24211;49.980;19.776;2023-05-20T12:24:41;25.27;;;14.23;;
38427;SDS011;24211;49.980;19.776;2023-05-20T12:27:08;27.77;;;15.45;;
38427;SDS011;24211;49.980;19.776;2023-05-20T12:29:36;28.25;;;15.38;;
38427;SDS011;24211;49.980;19.776;2023-05-20T12:32:03;25.05;;;13.38;;
38427;SDS011;24211;49.980;19.776;2023-05-20T12:34:31;25.02;;;14.55;;
38427;SDS011;24211;49.980;19.776;2023-05-20T12:36:58;27.70;;;15.85;;
38427;SDS011;24211;49.980;19.776;2023-05-20T12:39:25;25.58;;;15.00;;
38427;SDS011;24211;49.980;19.776;2023-05-20T12:46:24;22.35;;;12.98;;
38427;SDS011;24211;49.980;19.776;2023-05-20T12:48:55;25.88;;;15.43;;
38427;SDS011;24211;49.980;19.776;2023-05-20T12:51:37;28.67;;;16.50;;
38427;SDS011;24211;49.980;19.776;2023-05-20T12:54:04;26.60;;;14.40;;
38427;SDS011;24211;49.980;19.776;2023-05-20T12:56:32;27.17;;;15.95;;
38427;SDS011;24211;49.980;19.776;2023-05-20T13:03:34;26.00;;;14.93;;
38427;SDS011;24211;49.980;19.776;2023-05-20T13:06:01;24.70;;;15.07;;
38427;SDS011;24211;49.980;19.776;2023-05-20T13:08:29;27.17;;;15.38;;
38427;SDS011;24211;49.980;19.776;2023-05-20T13:10:56;24.95;;;14.63;;
38427;SDS011;24211;49.980;19.776;2023-05-20T13:13:24;24.83;;;14.95;;
38427;SDS011;24211;49.980;19.776;2023-05-20T13:15:51;23.00;;;13.02;;
38427;SDS011;24211;49.980;19.776;2023-05-20T13:18:20;25.50;;;13.35;;
38427;SDS011;24211;49.980;19.776;2023-05-20T13:20:49;23.13;;;14.10;;
38427;SDS011;24211;49.980;19.776;2023-05-20T13:23:16;23.50;;;13.38;;
38427;SDS011;24211;49.980;19.776;2023-05-20T13:25:43;22.70;;;13.77;;
38427;SDS011;24211;49.980;19.776;2023-05-20T13:35:44;19.73;;;11.73;;
38427;SDS011;24211;49.980;19.776;2023-05-20T13:38:12;16.48;;;10.25;;
38427;SDS011;24211;49.980;19.776;2023-05-20T13:40:39;18.00;;;11.05;;
38427;SDS011;24211;49.980;19.776;2023-05-20T13:43:06;27.13;;;13.05;;
38427;SDS011;24211;49.980;19.776;2023-05-20T13:45:33;19.02;;;11.70;;
38427;SDS011;24211;49.980;19.776;2023-05-20T13:48:00;21.27;;;11.80;;
38427;SDS011;24211;49.980;19.776;2023-05-20T13:53:23;19.55;;;11.45;;
38427;SDS011;24211;49.980;19.776;2023-05-20T14:04:03;19.02;;;11.32;;
38427;SDS011;24211;49.980;19.776;2023-05-20T14:06:31;17.70;;;11.65;;
38427;SDS011;24211;49.980;19.776;2023-05-20T14:08:58;20.85;;;11.80;;
38427;SDS011;24211;49.980;19.776;2023-05-20T14:11:25;16.45;;;10.30;;
38427;SDS011;24211;49.980;19.776;2023-05-20T14:13:52;16.90;;;10.15;;
38427;SDS011;24211;49.980;19.776;2023-05-20T14:16:20;16.17;;;10.40;;
38427;SDS011;24211;49.980;19.776;2023-05-20T14:18:47;15.98;;;10.27;;
38427;SDS011;24211;49.980;19.776;2023-05-20T14:21:14;20.05;;;10.77;;
38427;SDS011;24211;49.980;19.776;2023-05-20T14:23:41;17.80;;;11.35;;
38427;SDS011;24211;49.980;19.776;2023-05-20T14:26:10;17.33;;;10.70;;
38427;SDS011;24211;49.980;19.776;2023-05-20T14:28:37;18.45;;;10.73;;
38427;SDS011;24211;49.980;19.776;2023-05-20T14:31:05;19.17;;;10.52;;
38427;SDS011;24211;49.980;19.776;2023-05-20T14:33:35;18.67;;;10.77;;
38427;SDS011;24211;49.980;19.776;2023-05-20T14:36:02;15.95;;;9.82;;
38427;SDS011;24211;49.980;19.776;2023-05-20T14:38:30;16.73;;;10.60;;
38427;SDS011;24211;49.980;19.776;2023-05-20T14:40:57;17.02;;;9.75;;
38427;SDS011;24211;49.980;19.776;2023-05-20T14:43:29;16.80;;;9.70;;
38427;SDS011;24211;49.980;19.776;2023-05-20T14:45:57;16.25;;;9.88;;
38427;SDS011;24211;49.980;19.776;2023-05-20T14:48:27;15.85;;;9.77;;
38427;SDS011;24211;49.980;19.776;2023-05-20T14:50:55;15.82;;;9.82;;
38427;SDS011;24211;49.980;19.776;2023-05-20T14:53:22;18.48;;;11.13;;
38427;SDS011;24211;49.980;19.776;2023-05-20T14:55:49;17.90;;;11.00;;
38427;SDS011;24211;49.980;19.776;2023-05-20T14:58:16;16.92;;;10.35;;
38427;SDS011;24211;49.980;19.776;2023-05-20T15:00:43;18.02;;;10.48;;
38427;SDS011;24211;49.980;19.776;2023-05-20T15:03:11;16.70;;;10.48;;
38427;SDS011;24211;49.980;19.776;2023-05-20T15:05:38;19.10;;;10.70;;
38427;SDS011;24211;49.980;19.776;2023-05-20T15:08:06;15.55;;;9.55;;
38427;SDS011;24211;49.980;19.776;2023-05-20T15:10:34;15.82;;;9.80;;
38427;SDS011;24211;49.980;19.776;2023-05-20T15:13:01;15.48;;;9.85;;
38427;SDS011;24211;49.980;19.776;2023-05-20T15:16:46;19.52;;;9.65;;
38427;SDS011;24211;49.980;19.776;2023-05-20T15:19:15;14.55;;;9.63;;
38427;SDS011;24211;49.980;19.776;2023-05-20T15:21:59;15.57;;;9.57;;
38427;SDS011;24211;49.980;19.776;2023-05-20T15:24:26;15.05;;;9.27;;
38427;SDS011;24211;49.980;19.776;2023-05-20T15:26:53;16.45;;;9.82;;
38427;SDS011;24211;49.980;19.776;2023-05-20T15:29:21;17.85;;;9.82;;
38427;SDS011;24211;49.980;19.776;2023-05-20T15:31:48;15.18;;;9.88;;
38427;SDS011;24211;49.980;19.776;2023-05-20T15:34:16;15.27;;;9.57;;
38427;SDS011;24211;49.980;19.776;2023-05-20T15:36:47;17.23;;;10.00;;
38427;SDS011;24211;49.980;19.776;2023-05-20T15:39:14;15.10;;;9.20;;
38427;SDS011;24211;49.980;19.776;2023-05-20T15:41:42;15.88;;;9.38;;
38427;SDS011;24211;49.980;19.776;2023-05-20T15:44:09;15.23;;;9.25;;